Aviation Digital Data Service (ADDS)

Output produced by METARs form (0957 UTC 19 January 2019)
found at http://www.aviationweather.gov/metar/data/
 
RCTP 190930Z 01004KT 7000 FEW010 BKN090 18/17 Q1019 NOSIG RMK A3010
TAF RCTP 190500Z 1906/2012 03005KT 8000 FEW016 BKN032 
     TEMPO 1906/1910 32005KT 
     TEMPO 1913/1918 4000 BR 
     TEMPO 1918/1924 03010KT 2400 BR FEW005 BKN011 
     BECMG 2000/2002 04012KT 
     TEMPO 2003/2009 03018KT FEW007 BKN015
       
RCMQ 190930Z 34003KT 8000 FEW010 BKN050 18/14 Q1018 NOSIG RMK A3007
TAF RCMQ 190500Z 1906/2006 36012KT 7000 FEW010 BKN080 TX22/2006Z TN15/1920Z 
     BECMG 1909/1912 01004KT 5000 BR FEW008 BKN040 
     BECMG 1913/1916 2400 BR SCT008 BKN020 
     TEMPO 1918/1923 0800 FG BKN002 BKN010 
     BECMG 2001/2004 34008KT 4000 BR SCT010 BKN040
       
RCFN 190930Z 35004KT 310V040 9999 VCSH FEW018 BKN035 OVC060 20/14 Q1020 NOSIG RMK A3012
TAF RCFN 190500Z 1906/2006 35005KT 9999 FEW016 BKN032 
     TEMPO 1906/1911 05007KT 
     TEMPO 2001/2006 06010KT FEW010 BKN020
       
RCKH 190930Z 36005KT 320V060 7000 FEW013 BKN035 BKN050 23/14 Q1018 NOSIG RMK A3007
TAF RCKH 190500Z 1906/2012 36005KT 6000 FEW016 BKN040 
     TEMPO 1906/1910 29007KT 
     TEMPO 1914/1920 4000 HZ 
     TEMPO 1920/2003 05005KT 2800 BR 
     TEMPO 2003/2009 26007KT
       
RCSS 190930Z 28003KT 9999 FEW025 SCT050 BKN070 21/16 Q1019 NOSIG RMK A3009
TAF RCSS 190500Z 1906/2006 10005KT 9000 FEW016 BKN032 
     TEMPO 1906/1911 28007KT 
     TEMPO 2001/2006 08012KT FEW010 BKN018
       
RCNN 190930Z 03006KT 9999 FEW010 SCT032 BKN050 21/12 Q1018 NOSIG RMK A3007
TAF RCNN 190500Z 1906/2006 36006KT 9999 FEW012 BKN060 TX22/1906Z TN17/1920Z 
     BECMG 1910/1913 02004KT 8000 FEW012 SCT060 
     BECMG 1916/1919 5000 BR 
     BECMG 1920/1923 2400 BR FEW012 BKN060 
     BECMG 2002/2005 6000 FEW012 SCT060